Time;durP1;ratioP1;P1;durP2;ratioP2;P2;SDS_P1;SDS_P2;PMS_P1;PMS_P2;Temp;Humidity;BMP_temperature;BMP_pressure;BME280_temperature;BME280_humidity;BME280_pressure;Samples;Min_cycle;Max_cycle;Signal;HPM_P1;HPM_P2
2022/04/21 00:01:36;;;;;;;49.13;30.63;;;;;;;;;;5079938;28;20114;-76
2022/04/21 00:04:01;;;;;;;69.53;38.25;;;;;;;;;;5080307;28;20123;-71
2022/04/21 00:06:26;;;;;;;36.20;22.48;;;;;;;;;;5079220;28;20484;-69
2022/04/21 00:08:52;;;;;;;57.55;32.83;;;;;;;;;;5080113;28;20052;-71
2022/04/21 00:11:17;;;;;;;49.28;28.70;;;;;;;;;;5079822;28;20024;-70
2022/04/21 00:13:42;;;;;;;38.72;24.98;;;;;;;;;;5081008;28;20039;-69
2022/04/21 00:16:08;;;;;;;50.63;31.08;;;;;;;;;;5080003;28;20036;-70
2022/04/21 00:18:33;;;;;;;38.28;24.38;;;;;;;;;;5080330;28;20339;-69
2022/04/21 00:21:01;;;;;;;31.52;20.75;;;;;;;;;;5080269;28;20323;-69
2022/04/21 00:23:26;;;;;;;27.25;18.77;;;;;;;;;;5081028;28;20436;-70
2022/04/21 00:25:53;;;;;;;32.75;22.60;;;;;;;;;;5079472;28;20032;-73
2022/04/21 00:28:18;;;;;;;49.30;31.35;;;;;;;;;;5079357;28;20070;-70
2022/04/21 00:30:44;;;;;;;107.47;57.67;;;;;;;;;;5079485;28;20069;-76
2022/04/21 00:33:09;;;;;;;96.93;52.13;;;;;;;;;;5079954;28;20106;-71
2022/04/21 00:35:34;;;;;;;64.22;36.95;;;;;;;;;;5081256;28;20032;-69
2022/04/21 00:38:00;;;;;;;88.45;49.30;;;;;;;;;;5084643;28;20028;-77
2022/04/21 00:40:27;;;;;;;94.72;52.35;;;;;;;;;;5083051;28;20020;-72
2022/04/21 00:42:54;;;;;;;101.55;54.95;;;;;;;;;;5083820;28;20128;-69
2022/04/21 00:45:19;;;;;;;155.65;78.80;;;;;;;;;;5082926;28;20020;-75
2022/04/21 00:47:46;;;;;;;155.55;80.35;;;;;;;;;;5082388;28;20035;-69
2022/04/21 00:50:14;;;;;;;138.15;75.82;;;;;;;;;;5083034;28;20028;-72
2022/04/21 00:52:40;;;;;;;141.50;79.25;;;;;;;;;;5082670;28;20032;-69
2022/04/21 00:55:06;;;;;;;116.38;62.80;;;;;;;;;;5083339;28;20464;-72
2022/04/21 00:57:32;;;;;;;139.93;74.55;;;;;;;;;;5082687;28;20455;-69
2022/04/21 00:59:57;;;;;;;135.50;73.15;;;;;;;;;;5082526;28;20059;-69
2022/04/21 01:05:08;;;;;;;117.97;64.63;;;;;;;;;;5080637;28;20091;-75
2022/04/21 01:07:34;;;;;;;111.72;59.30;;;;;;;;;;5082733;28;20478;-72
2022/04/21 01:09:59;;;;;;;95.38;53.90;;;;;;;;;;5071136;28;20028;-71
2022/04/21 01:12:25;;;;;;;79.65;46.50;;;;;;;;;;5083601;28;20020;-71
2022/04/21 01:14:50;;;;;;;77.78;44.28;;;;;;;;;;5083398;28;20032;-70
2022/04/21 01:17:15;;;;;;;58.92;36.65;;;;;;;;;;5078785;28;20038;-70
2022/04/21 01:19:40;;;;;;;38.33;25.42;;;;;;;;;;5075894;28;20032;-70
2022/04/21 01:22:06;;;;;;;35.75;23.92;;;;;;;;;;5083032;28;20385;-71
2022/04/21 01:24:31;;;;;;;108.85;53.72;;;;;;;;;;5076548;28;20038;-71
2022/04/21 01:26:57;;;;;;;58.95;33.25;;;;;;;;;;5077548;28;20708;-71
2022/04/21 01:29:23;;;;;;;47.15;29.27;;;;;;;;;;5082274;28;20422;-73
2022/04/21 01:31:49;;;;;;;36.97;23.15;;;;;;;;;;5083953;28;20060;-76
2022/04/21 01:34:14;;;;;;;25.58;18.95;;;;;;;;;;5084049;28;20047;-70
2022/04/21 01:41:08;;;;;;;27.00;19.83;;;;;;;;;;5083362;28;20423;-70
2022/04/21 01:42:13;;;;;;;142.60;72.18;;;;;;;;;;5082232;28;20042;-74
2022/04/21 01:44:38;;;;;;;;;;;;;;;;;;5081908;28;20031;-75
2022/04/21 01:47:04;;;;;;;128.23;65.97;;;;;;;;;;5082037;28;19907;-73
2022/04/21 01:49:29;;;;;;;120.85;65.15;;;;;;;;;;5081727;28;20430;-70
2022/04/21 01:51:55;;;;;;;110.78;58.50;;;;;;;;;;5083612;28;20031;-74
2022/04/21 01:54:20;;;;;;;106.13;58.47;;;;;;;;;;5082101;28;20466;-71
2022/04/21 01:56:46;;;;;;;76.57;44.15;;;;;;;;;;5067143;28;20032;-69
2022/04/21 01:59:11;;;;;;;58.80;35.35;;;;;;;;;;5053318;28;21054;-72
2022/04/21 02:01:36;;;;;;;56.25;35.35;;;;;;;;;;5081154;28;20063;-69
2022/04/21 02:04:02;;;;;;;45.78;27.42;;;;;;;;;;5082718;28;20040;-71
2022/04/21 02:06:27;;;;;;;37.22;23.42;;;;;;;;;;5069969;28;20344;-71
2022/04/21 02:08:52;;;;;;;38.63;25.77;;;;;;;;;;5081471;28;20068;-71
2022/04/21 02:11:18;;;;;;;57.97;35.92;;;;;;;;;;5063140;28;20451;-75
2022/04/21 02:13:43;;;;;;;57.15;36.17;;;;;;;;;;5078969;28;20103;-72
2022/04/21 02:16:08;;;;;;;53.92;31.88;;;;;;;;;;5068458;28;20036;-71
2022/04/21 02:18:34;;;;;;;52.40;29.88;;;;;;;;;;5067924;28;20135;-75
2022/04/21 02:20:59;;;;;;;54.13;30.80;;;;;;;;;;5081692;28;20023;-70
2022/04/21 02:23:24;;;;;;;51.63;28.02;;;;;;;;;;5072979;28;20442;-76
2022/04/21 02:25:50;;;;;;;62.53;36.10;;;;;;;;;;5079939;28;20092;-71
2022/04/21 02:28:15;;;;;;;66.97;39.75;;;;;;;;;;5080978;28;20031;-70
2022/04/21 02:30:41;;;;;;;61.55;37.15;;;;;;;;;;5074099;28;20081;-72
2022/04/21 02:33:06;;;;;;;59.03;35.75;;;;;;;;;;5077844;28;20020;-69
2022/04/21 02:35:32;;;;;;;46.72;29.30;;;;;;;;;;5082469;28;20451;-76
2022/04/21 02:37:58;;;;;;;56.13;32.40;;;;;;;;;;5081817;28;20362;-74
2022/04/21 02:40:23;;;;;;;57.88;33.47;;;;;;;;;;5064188;28;20085;-70
2022/04/21 02:42:48;;;;;;;58.63;32.58;;;;;;;;;;5081485;28;20042;-69
2022/04/21 02:45:14;;;;;;;64.47;38.70;;;;;;;;;;5072692;28;21288;-71
2022/04/21 02:47:40;;;;;;;66.60;38.58;;;;;;;;;;5070873;28;20378;-73
2022/04/21 02:50:06;;;;;;;63.47;37.55;;;;;;;;;;5072679;28;20028;-72
2022/04/21 02:52:33;;;;;;;56.65;35.00;;;;;;;;;;5069036;28;20089;-69
2022/04/21 02:57:43;;;;;;;52.28;31.90;;;;;;;;;;5080248;28;20039;-69
2022/04/21 03:00:09;;;;;;;50.45;31.63;;;;;;;;;;5080023;28;20032;-68
2022/04/21 03:02:34;;;;;;;48.35;29.55;;;;;;;;;;5080403;28;20026;-68
2022/04/21 03:04:59;;;;;;;74.15;44.67;;;;;;;;;;5080322;28;20083;-75
2022/04/21 03:07:25;;;;;;;70.25;41.45;;;;;;;;;;5077614;28;20044;-73
2022/04/21 03:09:53;;;;;;;67.47;40.40;;;;;;;;;;5071739;28;20027;-74
2022/04/21 03:12:18;;;;;;;67.82;39.97;;;;;;;;;;5081092;28;20106;-68
2022/04/21 03:14:43;;;;;;;54.33;34.20;;;;;;;;;;5078764;28;20103;-68
2022/04/21 03:17:09;;;;;;;40.72;25.55;;;;;;;;;;5081285;28;20024;-70
2022/04/21 03:19:35;;;;;;;35.00;23.02;;;;;;;;;;5076864;28;20115;-74
2022/04/21 03:24:45;;;;;;;47.28;29.38;;;;;;;;;;5079561;28;20169;-66
2022/04/21 03:27:10;;;;;;;41.88;25.63;;;;;;;;;;5050119;28;20447;-67
2022/04/21 03:29:37;;;;;;;32.28;20.38;;;;;;;;;;5069206;28;20024;-67
2022/04/21 03:32:09;;;;;;;25.63;18.40;;;;;;;;;;5079601;28;20165;-74
2022/04/21 03:34:35;;;;;;;30.65;19.83;;;;;;;;;;5062573;28;20476;-74
2022/04/21 03:37:01;;;;;;;102.10;55.13;;;;;;;;;;5080293;28;20209;-70
2022/04/21 03:39:26;;;;;;;113.05;59.33;;;;;;;;;;5064668;28;20441;-69
2022/04/21 03:41:53;;;;;;;189.38;96.03;;;;;;;;;;5066187;28;20035;-72
2022/04/21 03:44:22;;;;;;;141.65;71.35;;;;;;;;;;5072562;28;20028;-70
2022/04/21 03:46:47;;;;;;;96.85;48.45;;;;;;;;;;5074236;28;20342;-68
2022/04/21 03:49:13;;;;;;;35.75;22.63;;;;;;;;;;5064039;28;20044;-67
2022/04/21 03:51:38;;;;;;;45.65;28.58;;;;;;;;;;5067771;28;20039;-69
2022/04/21 03:54:04;;;;;;;34.22;22.60;;;;;;;;;;5064919;28;20046;-69
2022/04/21 03:56:29;;;;;;;127.85;70.88;;;;;;;;;;5064624;28;20034;-70
2022/04/21 03:58:55;;;;;;;144.30;75.10;;;;;;;;;;5075934;28;20466;-72
2022/04/21 04:01:20;;;;;;;60.95;34.47;;;;;;;;;;5080752;28;20125;-69
2022/04/21 04:03:45;;;;;;;84.25;43.35;;;;;;;;;;5062148;28;20443;-70
2022/04/21 04:11:39;;;;;;;102.90;54.47;;;;;;;;;;5071177;28;20030;-68
2022/04/21 04:14:07;;;;;;;75.53;39.85;;;;;;;;;;5068076;28;20050;-75
2022/04/21 04:16:36;;;;;;;63.20;34.40;;;;;;;;;;5078102;28;20028;-71
2022/04/21 04:19:07;;;;;;;62.38;34.25;;;;;;;;;;5083755;28;20020;-72
2022/04/21 04:21:33;;;;;;;56.05;32.35;;;;;;;;;;5072264;28;20032;-73
2022/04/21 04:23:59;;;;;;;68.15;36.28;;;;;;;;;;5079558;28;20031;-72
2022/04/21 04:26:24;;;;;;;72.22;37.58;;;;;;;;;;5084513;28;20349;-70
2022/04/21 04:28:49;;;;;;;73.07;39.63;;;;;;;;;;5074268;28;20040;-69
2022/04/21 04:31:15;;;;;;;75.00;39.78;;;;;;;;;;5081657;28;20020;-69
2022/04/21 04:33:40;;;;;;;71.95;37.55;;;;;;;;;;5082263;28;20024;-69
2022/04/21 04:36:05;;;;;;;87.93;46.92;;;;;;;;;;5082292;28;20348;-68
2022/04/21 04:38:31;;;;;;;88.32;48.42;;;;;;;;;;5073389;28;20036;-75
2022/04/21 04:42:15;;;;;;;81.47;43.25;;;;;;;;;;5070062;28;20375;-71
2022/04/21 04:43:41;;;;;;;82.10;46.10;;;;;;;;;;5069673;28;20028;-72
2022/04/21 04:48:51;;;;;;;74.40;43.03;;;;;;;;;;5083407;28;20123;-69
2022/04/21 04:51:17;;;;;;;97.25;58.40;;;;;;;;;;5082824;28;20119;-73
2022/04/21 04:53:42;;;;;;;89.38;56.00;;;;;;;;;;5082503;28;20035;-75
2022/04/21 04:56:08;;;;;;;71.88;47.85;;;;;;;;;;5077790;28;20036;-74
2022/04/21 04:58:33;;;;;;;76.30;50.00;;;;;;;;;;5075721;28;20397;-68
2022/04/21 05:00:58;;;;;;;149.63;91.03;;;;;;;;;;5081482;28;20465;-71
2022/04/21 05:03:24;;;;;;;200.52;131.93;;;;;;;;;;5080535;28;20032;-71
2022/04/21 05:05:51;;;;;;;164.20;109.38;;;;;;;;;;5082851;28;20024;-72
2022/04/21 05:08:16;;;;;;;135.70;94.85;;;;;;;;;;5083308;28;20028;-77
2022/04/21 05:10:42;;;;;;;116.63;75.13;;;;;;;;;;5082073;28;20435;-73
2022/04/21 05:13:07;;;;;;;140.35;83.45;;;;;;;;;;5082600;28;20439;-69
2022/04/21 05:15:33;;;;;;;112.55;66.03;;;;;;;;;;5081270;28;20058;-73
2022/04/21 05:17:58;;;;;;;103.20;57.22;;;;;;;;;;5081680;28;20024;-69
2022/04/21 05:20:24;;;;;;;95.13;52.88;;;;;;;;;;5081827;28;20039;-71
2022/04/21 05:22:50;;;;;;;141.93;75.78;;;;;;;;;;5082893;28;20028;-69
2022/04/21 05:25:16;;;;;;;129.18;72.00;;;;;;;;;;5081407;28;20182;-73
2022/04/21 05:27:41;;;;;;;132.98;78.80;;;;;;;;;;5082379;28;20119;-70
2022/04/21 05:32:52;;;;;;;121.25;79.95;;;;;;;;;;5081943;28;20031;-68
2022/04/21 05:35:17;;;;;;;137.40;86.82;;;;;;;;;;5082216;28;20020;-70
2022/04/21 05:37:43;;;;;;;126.60;82.18;;;;;;;;;;5082237;28;20349;-69
2022/04/21 05:40:08;;;;;;;129.13;82.85;;;;;;;;;;5076795;28;20381;-69
2022/04/21 05:42:35;;;;;;;187.30;111.55;;;;;;;;;;5069872;28;20024;-71
2022/04/21 05:45:02;;;;;;;181.45;99.75;;;;;;;;;;5081837;28;20024;-73
2022/04/21 05:47:28;;;;;;;182.30;104.38;;;;;;;;;;5072893;28;20040;-69
2022/04/21 05:49:53;;;;;;;207.65;121.80;;;;;;;;;;5090099;28;20034;-72
2022/04/21 05:52:22;;;;;;;195.55;117.13;;;;;;;;;;5088950;28;20127;-73
2022/04/21 05:54:47;;;;;;;154.35;97.55;;;;;;;;;;5088439;28;20134;-68
2022/04/21 05:57:13;;;;;;;135.00;87.90;;;;;;;;;;5087853;28;20056;-70
2022/04/21 05:59:38;;;;;;;115.55;76.32;;;;;;;;;;5080051;28;20049;-70
2022/04/21 06:02:04;;;;;;;79.13;51.85;;;;;;;;;;5068758;28;20423;-70
2022/04/21 06:04:29;;;;;;;58.70;39.53;;;;;;;;;;5068833;28;20130;-70
2022/04/21 06:06:54;;;;;;;38.50;27.88;;;;;;;;;;5069358;28;20028;-75
2022/04/21 06:09:20;;;;;;;52.95;35.97;;;;;;;;;;5067264;28;20041;-73
2022/04/21 06:11:46;;;;;;;109.95;57.47;;;;;;;;;;5068707;28;20024;-66
2022/04/21 06:14:12;;;;;;;69.22;42.05;;;;;;;;;;5075520;28;20815;-68
2022/04/21 06:16:37;;;;;;;68.53;43.10;;;;;;;;;;5071070;28;20027;-70
2022/04/21 06:19:02;;;;;;;83.38;53.88;;;;;;;;;;5069347;28;20074;-67
2022/04/21 06:21:28;;;;;;;88.30;55.58;;;;;;;;;;5067811;28;20019;-69
2022/04/21 06:23:53;;;;;;;86.57;50.97;;;;;;;;;;5074153;28;20020;-67
2022/04/21 06:26:19;;;;;;;85.68;47.13;;;;;;;;;;5073181;28;20338;-70
2022/04/21 06:28:44;;;;;;;98.57;55.30;;;;;;;;;;5076655;28;20080;-69
2022/04/21 06:31:10;;;;;;;115.97;60.88;;;;;;;;;;5063571;28;20028;-67
2022/04/21 06:33:35;;;;;;;44.03;27.58;;;;;;;;;;5080339;28;20435;-70
2022/04/21 06:36:03;;;;;;;37.65;24.25;;;;;;;;;;5078083;28;20102;-72
2022/04/21 06:38:28;;;;;;;45.35;30.25;;;;;;;;;;5073421;28;20043;-68
2022/04/21 06:40:53;;;;;;;43.33;27.00;;;;;;;;;;5048900;28;20823;-69
2022/04/21 06:48:47;;;;;;;43.22;31.65;;;;;;;;;;5066903;28;20086;-71
2022/04/21 06:51:13;;;;;;;32.53;23.98;;;;;;;;;;5066166;28;20115;-72
2022/04/21 06:53:39;;;;;;;27.17;22.52;;;;;;;;;;5071190;28;20058;-70
2022/04/21 06:56:04;;;;;;;24.23;20.65;;;;;;;;;;5074142;28;20035;-65
2022/04/21 06:58:30;;;;;;;22.90;20.40;;;;;;;;;;5078368;28;20028;-66
2022/04/21 07:00:55;;;;;;;19.13;17.13;;;;;;;;;;5076966;28;20027;-67
2022/04/21 07:03:20;;;;;;;21.38;18.90;;;;;;;;;;5071882;28;20414;-69
2022/04/21 07:05:46;;;;;;;19.65;17.55;;;;;;;;;;5074452;28;20047;-69
2022/04/21 07:08:11;;;;;;;22.65;20.25;;;;;;;;;;5068437;28;20048;-68
2022/04/21 07:10:36;;;;;;;34.63;22.20;;;;;;;;;;5056530;28;20020;-68
2022/04/21 07:13:11;;;;;;;22.13;17.73;;;;;;;;;;5072745;28;20355;-76
2022/04/21 07:15:36;;;;;;;25.50;19.85;;;;;;;;;;5069597;28;20024;-68
2022/04/21 07:18:02;;;;;;;21.75;18.40;;;;;;;;;;5079333;28;20101;-65
2022/04/21 07:20:27;;;;;;;21.13;18.85;;;;;;;;;;5077978;28;20397;-70
2022/04/21 07:22:52;;;;;;;22.35;18.08;;;;;;;;;;5080507;28;20120;-68
2022/04/21 07:25:18;;;;;;;23.58;19.63;;;;;;;;;;5078420;28;20028;-73
2022/04/21 07:27:43;;;;;;;37.90;31.20;;;;;;;;;;5071344;28;20468;-66
2022/04/21 07:30:09;;;;;;;30.42;24.05;;;;;;;;;;5077016;28;20039;-67
2022/04/21 07:32:34;;;;;;;28.30;21.95;;;;;;;;;;5079068;28;20034;-68
2022/04/21 07:35:00;;;;;;;22.30;16.65;;;;;;;;;;5078962;28;20027;-71
2022/04/21 07:37:26;;;;;;;25.25;20.30;;;;;;;;;;5070518;28;20482;-79
2022/04/21 07:39:51;;;;;;;14.73;13.20;;;;;;;;;;5066695;28;20082;-73
2022/04/21 07:42:16;;;;;;;14.52;11.80;;;;;;;;;;5067231;28;20038;-69
2022/04/21 07:44:42;;;;;;;11.80;10.57;;;;;;;;;;5071278;28;20019;-69
2022/04/21 07:47:08;;;;;;;13.73;11.10;;;;;;;;;;5078467;28;20467;-69
2022/04/21 07:49:45;;;;;;;20.52;13.55;;;;;;;;;;5074928;28;20124;-75
2022/04/21 07:55:04;;;;;;;14.13;11.35;;;;;;;;;;5079209;28;20362;-72
2022/04/21 07:57:30;;;;;;;17.65;13.23;;;;;;;;;;5080721;28;20032;-72
2022/04/21 07:59:55;;;;;;;14.43;11.50;;;;;;;;;;5080643;28;20024;-69
2022/04/21 08:02:20;;;;;;;15.25;13.15;;;;;;;;;;5077159;28;20117;-72
2022/04/21 08:04:47;;;;;;;13.25;11.75;;;;;;;;;;5068468;28;20521;-72
2022/04/21 08:07:13;;;;;;;14.32;12.80;;;;;;;;;;5074635;28;20032;-72
2022/04/21 08:09:38;;;;;;;11.65;10.45;;;;;;;;;;5065312;28;20043;-70
2022/04/21 08:12:04;;;;;;;12.10;10.02;;;;;;;;;;5063987;28;20047;-73
2022/04/21 08:14:29;;;;;;;12.00;10.80;;;;;;;;;;5065165;28;20074;-71
2022/04/21 08:16:55;;;;;;;16.55;14.23;;;;;;;;;;5066281;28;20394;-74
2022/04/21 08:19:20;;;;;;;36.55;21.77;;;;;;;;;;5076357;28;20070;-71
2022/04/21 08:21:47;;;;;;;37.00;24.20;;;;;;;;;;5077425;28;20048;-69
2022/04/21 08:32:33;;;;;;;28.13;19.20;;;;;;;;;;5078296;28;20031;-72
2022/04/21 08:35:02;;;;;;;23.55;18.33;;;;;;;;;;5077587;28;20028;-71
2022/04/21 08:37:28;;;;;;;17.17;13.45;;;;;;;;;;5075849;28;20443;-75
2022/04/21 08:39:54;;;;;;;15.20;11.68;;;;;;;;;;5078558;28;20039;-75
2022/04/21 08:42:21;;;;;;;11.02;9.63;;;;;;;;;;5078799;28;20020;-74
2022/04/21 08:44:48;;;;;;;11.82;10.50;;;;;;;;;;5083892;28;20028;-70
2022/04/21 08:47:17;;;;;;;11.38;10.18;;;;;;;;;;5082965;28;20654;-65
2022/04/21 08:49:43;;;;;;;11.00;9.27;;;;;;;;;;5088515;28;20065;-63
2022/04/21 08:52:11;;;;;;;10.20;9.13;;;;;;;;;;5087138;28;20016;-68
2022/04/21 08:54:36;;;;;;;11.35;10.02;;;;;;;;;;5088162;28;20462;-71
2022/04/21 08:57:02;;;;;;;55.78;32.65;;;;;;;;;;5091875;28;20020;-72
2022/04/21 08:59:27;;;;;;;33.95;23.40;;;;;;;;;;5090908;28;20109;-71
2022/04/21 09:01:52;;;;;;;35.65;19.38;;;;;;;;;;5091192;28;20063;-72
2022/04/21 09:04:18;;;;;;;28.17;16.92;;;;;;;;;;5083188;28;185745;-72
2022/04/21 09:06:43;;;;;;;12.90;9.48;;;;;;;;;;5089821;28;20036;-75
2022/04/21 09:09:21;;;;;;;15.48;13.07;;;;;;;;;;5091820;28;20036;-75
2022/04/21 09:11:49;;;;;;;13.13;10.52;;;;;;;;;;5092142;28;20040;-74
2022/04/21 09:14:16;;;;;;;10.40;8.82;;;;;;;;;;5091507;28;20020;-72
2022/04/21 09:16:41;;;;;;;15.05;10.15;;;;;;;;;;5092183;28;20331;-75
2022/04/21 09:19:06;;;;;;;12.55;8.50;;;;;;;;;;5090523;28;20031;-73
2022/04/21 09:21:36;;;;;;;14.90;11.32;;;;;;;;;;5092563;28;20020;-74
2022/04/21 09:24:01;;;;;;;;;;;;;;;;;;5090802;28;20024;-75
2022/04/21 09:26:26;;;;;;;8.47;7.00;;;;;;;;;;5089528;28;19989;-76
2022/04/21 09:28:53;;;;;;;12.35;9.43;;;;;;;;;;5089845;28;20439;-73
2022/04/21 09:31:18;;;;;;;8.98;7.20;;;;;;;;;;5090332;28;20035;-79
2022/04/21 09:33:45;;;;;;;11.18;8.20;;;;;;;;;;5089808;28;20020;-76
2022/04/21 09:36:10;;;;;;;9.18;6.97;;;;;;;;;;5087210;28;20055;-74
2022/04/21 09:38:37;;;;;;;12.07;9.95;;;;;;;;;;5089126;28;20051;-73
2022/04/21 09:41:10;;;;;;;14.02;10.60;;;;;;;;;;5088535;28;20502;-75
2022/04/21 09:43:37;;;;;;;11.07;8.30;;;;;;;;;;5088693;28;20016;-68
2022/04/21 09:46:13;;;;;;;10.93;8.35;;;;;;;;;;5091432;28;20618;-65
2022/04/21 09:48:39;;;;;;;11.05;8.82;;;;;;;;;;5090903;28;20099;-66
2022/04/21 09:51:13;;;;;;;9.57;7.32;;;;;;;;;;5087399;28;20047;-70
2022/04/21 09:53:54;;;;;;;6.60;5.50;;;;;;;;;;5083897;28;20324;-67
2022/04/21 09:56:30;;;;;;;8.90;7.60;;;;;;;;;;5069748;28;20449;-72
2022/04/21 09:58:55;;;;;;;5.88;5.35;;;;;;;;;;5082500;28;20031;-68
2022/04/21 10:01:21;;;;;;;8.00;7.20;;;;;;;;;;5083694;28;20036;-68
2022/04/21 10:03:46;;;;;;;8.13;6.32;;;;;;;;;;5083338;28;20117;-74
2022/04/21 10:06:12;;;;;;;6.78;5.22;;;;;;;;;;5082572;28;20386;-68
2022/04/21 10:08:40;;;;;;;7.82;5.88;;;;;;;;;;5079815;28;20081;-69
2022/04/21 10:11:06;;;;;;;16.60;6.13;;;;;;;;;;5081263;28;20016;-76
2022/04/21 10:13:32;;;;;;;10.27;8.43;;;;;;;;;;5073764;28;20439;-72
2022/04/21 10:15:58;;;;;;;12.57;9.48;;;;;;;;;;5067999;28;20039;-69
2022/04/21 10:18:24;;;;;;;8.63;7.30;;;;;;;;;;5067815;28;20039;-68
2022/04/21 10:20:52;;;;;;;7.60;5.85;;;;;;;;;;5069568;28;20035;-68
2022/04/21 10:23:18;;;;;;;11.32;7.63;;;;;;;;;;5061471;28;20343;-73
2022/04/21 10:25:44;;;;;;;18.10;15.13;;;;;;;;;;5081782;28;20027;-69
2022/04/21 10:28:27;;;;;;;13.90;12.45;;;;;;;;;;5080042;28;20016;-70
2022/04/21 10:30:56;;;;;;;23.13;19.30;;;;;;;;;;5081521;28;20043;-69
2022/04/21 10:33:41;;;;;;;42.23;23.07;;;;;;;;;;5082221;28;20024;-68
2022/04/21 10:36:07;;;;;;;58.95;30.20;;;;;;;;;;5082300;28;20095;-69
2022/04/21 10:38:32;;;;;;;25.98;15.82;;;;;;;;;;5081850;28;20111;-67
2022/04/21 10:41:02;;;;;;;33.92;20.92;;;;;;;;;;5081349;28;20107;-67
2022/04/21 10:44:03;;;;;;;24.15;12.98;;;;;;;;;;5063804;28;20367;-68
2022/04/21 10:46:30;;;;;;;13.18;8.43;;;;;;;;;;5038366;28;20579;-69
2022/04/21 10:48:56;;;;;;;21.00;15.80;;;;;;;;;;5073857;28;20062;-73
2022/04/21 10:51:40;;;;;;;8.60;6.43;;;;;;;;;;5082140;28;20439;-70
2022/04/21 10:59:48;;;;;;;25.75;17.50;;;;;;;;;;5082942;28;20083;-72
2022/04/21 11:02:14;;;;;;;30.13;18.23;;;;;;;;;;5083531;28;20049;-68
2022/04/21 11:04:39;;;;;;;34.40;19.55;;;;;;;;;;5081509;28;20048;-73
2022/04/21 11:07:08;;;;;;;25.20;14.27;;;;;;;;;;5083770;28;20032;-68
2022/04/21 11:09:50;;;;;;;24.85;19.77;;;;;;;;;;5070571;28;20070;-68
2022/04/21 11:12:16;;;;;;;17.75;14.18;;;;;;;;;;5073897;28;20028;-73
2022/04/21 11:14:44;;;;;;;15.98;11.73;;;;;;;;;;5067295;28;20091;-69
2022/04/21 11:17:09;;;;;;;16.30;11.57;;;;;;;;;;5066317;28;20300;-71
2022/04/21 11:19:36;;;;;;;11.35;10.07;;;;;;;;;;5075462;28;20039;-69
2022/04/21 11:22:03;;;;;;;9.23;7.82;;;;;;;;;;5074413;28;20020;-74
2022/04/21 11:24:48;;;;;;;13.02;8.05;;;;;;;;;;5070326;28;20024;-71
2022/04/21 11:27:14;;;;;;;11.13;8.85;;;;;;;;;;5074593;28;20024;-74
2022/04/21 11:29:40;;;;;;;8.63;6.43;;;;;;;;;;5080881;28;20516;-78
2022/04/21 11:32:06;;;;;;;7.03;5.55;;;;;;;;;;5081811;28;20035;-76
2022/04/21 11:34:33;;;;;;;15.25;10.52;;;;;;;;;;5064463;28;20038;-76
2022/04/21 11:37:01;;;;;;;10.05;8.32;;;;;;;;;;5082585;28;20032;-72
2022/04/21 11:39:26;;;;;;;10.65;7.57;;;;;;;;;;5081488;28;20143;-68
2022/04/21 11:41:52;;;;;;;11.82;8.52;;;;;;;;;;5079846;28;21175;-72
2022/04/21 11:44:24;;;;;;;13.77;10.10;;;;;;;;;;5066345;28;20024;-69
2022/04/21 11:46:49;;;;;;;11.07;9.07;;;;;;;;;;5066214;28;20652;-71
2022/04/21 11:49:15;;;;;;;7.70;6.90;;;;;;;;;;5049888;28;20035;-70
2022/04/21 11:51:41;;;;;;;5.22;4.25;;;;;;;;;;5066753;28;20118;-71
2022/04/21 11:54:07;;;;;;;5.03;4.50;;;;;;;;;;5067376;28;20027;-71
2022/04/21 11:56:33;;;;;;;7.30;6.53;;;;;;;;;;5067366;28;20430;-70
2022/04/21 11:59:04;;;;;;;39.40;25.80;;;;;;;;;;5068186;28;20066;-70
2022/04/21 12:06:58;;;;;;;12.75;8.25;;;;;;;;;;5079951;28;20093;-71
2022/04/21 12:09:25;;;;;;;13.20;9.00;;;;;;;;;;5079486;28;20032;-71
2022/04/21 12:11:53;;;;;;;18.65;15.13;;;;;;;;;;5079984;28;20074;-74
2022/04/21 12:14:19;;;;;;;14.55;10.50;;;;;;;;;;5068853;28;20093;-69
2022/04/21 12:16:54;;;;;;;12.98;8.43;;;;;;;;;;5068887;28;20939;-76
2022/04/21 12:19:26;;;;;;;9.27;7.25;;;;;;;;;;5077144;28;20095;-70
2022/04/21 12:21:56;;;;;;;8.68;5.60;;;;;;;;;;5082098;28;20016;-72
2022/04/21 12:24:26;;;;;;;14.05;8.80;;;;;;;;;;5076942;28;20021;-70
2022/04/21 12:26:52;;;;;;;9.77;7.43;;;;;;;;;;5067357;28;20820;-71
2022/04/21 12:29:18;;;;;;;14.27;9.73;;;;;;;;;;5074332;28;20032;-71
2022/04/21 12:31:43;;;;;;;28.67;18.45;;;;;;;;;;5080983;28;20028;-75
2022/04/21 12:34:11;;;;;;;26.40;18.90;;;;;;;;;;5073648;28;20024;-71
2022/04/21 12:36:37;;;;;;;19.13;16.50;;;;;;;;;;5084426;28;20093;-71
2022/04/21 12:39:02;;;;;;;20.60;16.05;;;;;;;;;;5083374;28;20028;-71
2022/04/21 12:41:28;;;;;;;9.18;8.20;;;;;;;;;;5070005;28;20702;-75
2022/04/21 12:43:53;;;;;;;15.57;11.85;;;;;;;;;;5071048;28;20016;-72
2022/04/21 12:46:19;;;;;;;9.38;6.65;;;;;;;;;;5069930;28;20028;-75
2022/04/21 12:48:48;;;;;;;8.45;5.90;;;;;;;;;;5084527;28;20031;-72
2022/04/21 12:51:20;;;;;;;6.55;5.75;;;;;;;;;;5077127;28;20030;-73
2022/04/21 12:53:53;;;;;;;8.20;5.38;;;;;;;;;;5052883;28;20384;-72
2022/04/21 12:56:19;;;;;;;11.23;7.28;;;;;;;;;;5069308;28;20103;-70
2022/04/21 12:58:55;;;;;;;19.20;12.52;;;;;;;;;;5070714;28;20189;-70
2022/04/21 13:01:20;;;;;;;9.95;7.13;;;;;;;;;;5070411;28;20028;-71
2022/04/21 13:03:45;;;;;;;7.70;4.05;;;;;;;;;;5074348;28;20059;-76
2022/04/21 13:06:11;;;;;;;8.80;4.93;;;;;;;;;;5051875;28;20039;-69
2022/04/21 13:08:36;;;;;;;7.32;5.57;;;;;;;;;;5072748;28;20036;-70
2022/04/21 13:11:01;;;;;;;8.52;5.70;;;;;;;;;;5081305;28;20047;-69
2022/04/21 13:13:27;;;;;;;7.55;4.88;;;;;;;;;;5083940;28;20039;-74
2022/04/21 13:15:52;;;;;;;7.40;5.07;;;;;;;;;;5076903;28;20156;-73
2022/04/21 13:18:18;;;;;;;8.63;5.25;;;;;;;;;;5068885;28;20122;-75
2022/04/21 13:23:28;;;;;;;6.80;4.22;;;;;;;;;;5068859;28;20157;-69
2022/04/21 13:25:54;;;;;;;5.28;4.15;;;;;;;;;;5070385;28;20499;-70
2022/04/21 13:28:19;;;;;;;6.35;4.82;;;;;;;;;;5068652;28;20470;-72
2022/04/21 13:30:45;;;;;;;5.00;4.28;;;;;;;;;;5052022;28;20042;-75
2022/04/21 13:33:22;;;;;;;13.23;8.98;;;;;;;;;;5069528;28;20028;-75
2022/04/21 13:35:51;;;;;;;7.30;4.32;;;;;;;;;;5076422;28;20034;-73
2022/04/21 13:38:16;;;;;;;9.40;6.30;;;;;;;;;;5075902;28;20047;-75
2022/04/21 13:40:42;;;;;;;7.22;5.60;;;;;;;;;;5078050;28;20032;-70
2022/04/21 13:43:08;;;;;;;7.15;4.90;;;;;;;;;;5085122;28;20438;-68
2022/04/21 13:45:35;;;;;;;4.53;3.53;;;;;;;;;;5074444;28;20032;-68
2022/04/21 13:48:01;;;;;;;7.13;4.80;;;;;;;;;;5068333;28;20066;-74
2022/04/21 13:50:27;;;;;;;12.43;8.13;;;;;;;;;;5069889;28;20074;-73
2022/04/21 13:52:53;;;;;;;4.07;3.60;;;;;;;;;;5069656;28;20020;-71
2022/04/21 13:55:18;;;;;;;4.45;3.80;;;;;;;;;;5069348;28;20031;-74
2022/04/21 13:57:44;;;;;;;11.25;9.68;;;;;;;;;;5068679;28;20449;-69
2022/04/21 14:00:09;;;;;;;11.57;10.07;;;;;;;;;;5051692;28;20088;-69
2022/04/21 14:02:34;;;;;;;7.75;5.72;;;;;;;;;;5067910;28;20107;-70
2022/04/21 14:05:00;;;;;;;11.82;6.90;;;;;;;;;;5051108;28;20056;-69
2022/04/21 14:07:25;;;;;;;30.45;18.73;;;;;;;;;;5069104;28;20020;-70
2022/04/21 14:09:51;;;;;;;12.63;5.63;;;;;;;;;;5069174;28;20042;-69
2022/04/21 14:12:18;;;;;;;7.30;5.95;;;;;;;;;;5066449;28;20093;-69
2022/04/21 14:14:44;;;;;;;4.93;4.45;;;;;;;;;;5068188;28;20055;-72
2022/04/21 14:17:09;;;;;;;6.78;4.93;;;;;;;;;;5065833;28;20066;-70
2022/04/21 14:19:34;;;;;;;7.93;5.35;;;;;;;;;;5066205;28;20024;-69
2022/04/21 14:21:59;;;;;;;6.00;5.32;;;;;;;;;;5067741;28;20028;-69
2022/04/21 14:24:25;;;;;;;5.93;5.25;;;;;;;;;;5066745;28;20427;-69
2022/04/21 14:26:50;;;;;;;4.60;4.03;;;;;;;;;;5067157;28;20771;-69
2022/04/21 14:29:16;;;;;;;7.10;5.78;;;;;;;;;;5067545;28;20039;-71
2022/04/21 14:31:41;;;;;;;7.80;5.72;;;;;;;;;;5049897;28;20028;-72
2022/04/21 14:34:07;;;;;;;11.13;6.80;;;;;;;;;;5068953;28;20098;-76
2022/04/21 14:36:33;;;;;;;5.70;4.53;;;;;;;;;;5070506;28;20023;-73
2022/04/21 14:44:27;;;;;;;10.32;7.03;;;;;;;;;;5069111;28;20047;-68
2022/04/21 14:46:54;;;;;;;12.60;9.77;;;;;;;;;;5065490;28;20107;-68
2022/04/21 14:49:19;;;;;;;12.75;9.30;;;;;;;;;;5067722;28;20067;-69
2022/04/21 14:51:44;;;;;;;13.88;10.68;;;;;;;;;;5067067;28;20140;-75
2022/04/21 14:54:10;;;;;;;17.63;12.13;;;;;;;;;;5066077;28;20039;-71
2022/04/21 14:56:41;;;;;;;15.38;10.55;;;;;;;;;;5068306;28;20488;-69
2022/04/21 14:59:06;;;;;;;10.50;6.88;;;;;;;;;;5066535;28;20032;-71
2022/04/21 15:01:32;;;;;;;10.15;7.68;;;;;;;;;;5069976;28;20084;-70
2022/04/21 15:03:57;;;;;;;15.20;11.23;;;;;;;;;;5074850;28;20036;-72
2022/04/21 15:06:23;;;;;;;15.23;10.88;;;;;;;;;;5065917;28;20311;-69
2022/04/21 15:08:48;;;;;;;21.30;16.38;;;;;;;;;;5065551;28;20036;-68
2022/04/21 15:11:13;;;;;;;21.45;15.77;;;;;;;;;;5067554;28;20039;-75
2022/04/21 15:13:39;;;;;;;8.38;7.13;;;;;;;;;;5066299;28;20355;-70
2022/04/21 15:16:04;;;;;;;14.82;11.68;;;;;;;;;;5076726;28;20118;-76